createdAt,value
2023-01-13T00:00:16.759Z,3.17
2023-01-13T00:01:48.416Z,1.58
2023-01-13T00:03:20.585Z,1.80
2023-01-13T00:04:52.246Z,1.60
2023-01-13T00:06:26.091Z,3.35
2023-01-13T00:07:57.783Z,3.28
2023-01-13T00:09:29.407Z,3.15
2023-01-13T00:11:01.235Z,1.75
2023-01-13T00:12:32.906Z,2.30
2023-01-13T00:14:04.694Z,1.40
2023-01-13T00:15:36.492Z,1.80
2023-01-13T00:17:08.214Z,2.42
2023-01-13T00:18:39.869Z,2.15
2023-01-13T00:20:12.069Z,2.15
2023-01-13T00:21:45.068Z,4.15
2023-01-13T00:23:16.739Z,3.63
2023-01-13T00:24:48.355Z,2.83
2023-01-13T00:26:22.527Z,3.33
2023-01-13T00:27:54.400Z,3.53
2023-01-13T00:29:26.023Z,2.25
2023-01-13T00:31:05.250Z,4.60
2023-01-13T00:32:36.888Z,4.63
2023-01-13T00:34:08.827Z,3.05
2023-01-13T00:35:40.499Z,3.40
2023-01-13T00:37:14.648Z,2.08
2023-01-13T00:38:47.659Z,3.60
2023-01-13T00:40:19.534Z,4.20
2023-01-13T00:42:09.903Z,5.32
2023-01-13T00:43:42.543Z,6.35
2023-01-13T00:45:14.354Z,5.53
2023-01-13T00:46:46.184Z,2.85
2023-01-13T00:48:19.144Z,4.88
2023-01-13T00:49:50.777Z,4.90
2023-01-13T00:51:22.521Z,4.60
2023-01-13T00:52:55.553Z,6.30
2023-01-13T00:54:27.205Z,3.25
2023-01-13T00:55:59.901Z,7.30
2023-01-13T00:57:31.781Z,5.22
2023-01-13T00:59:04.106Z,6.32
2023-01-13T01:00:36.003Z,6.47
2023-01-13T01:02:07.867Z,6.60
2023-01-13T01:03:40.158Z,5.05
2023-01-13T01:05:11.770Z,5.40
2023-01-13T01:06:43.459Z,4.00
2023-01-13T01:08:16.428Z,2.30
2023-01-13T01:09:49.585Z,4.20
2023-01-13T01:11:23.438Z,5.47
2023-01-13T01:12:55.127Z,6.57
2023-01-13T01:14:27.225Z,4.75
2023-01-13T01:15:59.272Z,5.90
2023-01-13T01:17:30.927Z,5.13
2023-01-13T01:19:03.446Z,5.50
2023-01-13T01:20:36.621Z,7.57
2023-01-13T01:22:08.294Z,7.80
2023-01-13T01:23:42.083Z,8.20
2023-01-13T01:25:13.812Z,7.90
2023-01-13T01:26:45.563Z,7.80
2023-01-13T01:28:19.356Z,3.80
2023-01-13T01:29:51.033Z,6.85
2023-01-13T01:31:25.252Z,8.40
2023-01-13T01:33:00.088Z,5.32
2023-01-13T01:34:31.837Z,7.00
2023-01-13T01:36:04.269Z,6.13
2023-01-13T01:37:36.037Z,4.80
2023-01-13T01:39:09.653Z,7.85
2023-01-13T01:40:41.431Z,7.03
2023-01-13T01:42:34.434Z,6.25
2023-01-13T01:44:28.367Z,5.97
2023-01-13T01:46:00.072Z,5.70
2023-01-13T01:47:32.580Z,6.25
2023-01-13T01:49:10.576Z,8.30
2023-01-13T01:50:42.257Z,8.23
2023-01-13T01:52:18.130Z,6.40
2023-01-13T01:53:51.253Z,9.00
2023-01-13T01:55:29.407Z,6.57
2023-01-13T01:57:01.527Z,7.57
2023-01-13T01:58:41.715Z,4.18
2023-01-13T02:00:14.229Z,3.40
2023-01-13T02:01:46.331Z,6.20
2023-01-13T02:03:18.628Z,8.80
2023-01-13T02:04:53.388Z,5.72
2023-01-13T02:06:25.333Z,6.03
2023-01-13T02:07:58.959Z,7.30
2023-01-13T02:09:31.050Z,5.60
2023-01-13T02:11:04.259Z,5.63
2023-01-13T02:12:37.385Z,6.38
2023-01-13T02:14:09.156Z,6.40
2023-01-13T02:15:47.570Z,6.15
2023-01-13T02:17:28.550Z,5.20
2023-01-13T02:19:07.807Z,9.18
2023-01-13T02:21:01.515Z,7.63
2023-01-13T02:22:49.268Z,5.68
2023-01-13T02:24:55.268Z,5.15
2023-01-13T02:27:01.850Z,3.70
2023-01-13T02:29:12.145Z,8.05
2023-01-13T02:31:08.112Z,6.00
2023-01-13T02:32:49.610Z,5.97
2023-01-13T02:34:29.900Z,3.78
2023-01-13T02:36:05.072Z,7.22
2023-01-13T02:37:40.553Z,5.30
2023-01-13T02:39:16.826Z,6.57
2023-01-13T02:40:56.653Z,4.53
2023-01-13T02:42:51.309Z,6.13
2023-01-13T02:44:28.814Z,4.75
2023-01-13T02:46:08.068Z,7.13
2023-01-13T02:47:42.223Z,5.80
2023-01-13T02:49:20.811Z,10.70
2023-01-13T02:50:58.063Z,6.75
2023-01-13T02:52:34.626Z,11.48
2023-01-13T02:54:10.453Z,8.52
2023-01-13T02:55:46.814Z,6.97
2023-01-13T02:57:20.578Z,10.52
2023-01-13T02:58:55.586Z,8.88
2023-01-13T03:00:28.691Z,5.35
2023-01-13T03:02:03.679Z,8.98
2023-01-13T03:03:36.541Z,6.05
2023-01-13T03:05:14.412Z,6.20
2023-01-13T03:06:57.640Z,7.57
2023-01-13T03:08:42.741Z,6.88
2023-01-13T03:10:24.962Z,9.02
2023-01-13T03:12:15.423Z,8.07
2023-01-13T03:14:04.243Z,9.60
2023-01-13T03:15:47.690Z,9.55
2023-01-13T03:17:29.870Z,11.88
2023-01-13T03:19:14.564Z,5.93
2023-01-13T03:20:56.285Z,7.75
2023-01-13T03:22:35.128Z,8.32
2023-01-13T03:24:11.778Z,8.13
2023-01-13T03:25:50.986Z,8.00
2023-01-13T03:27:28.553Z,9.07
2023-01-13T03:29:06.819Z,7.72
2023-01-13T03:30:42.287Z,7.13
2023-01-13T03:32:20.248Z,6.88
2023-01-13T03:33:57.565Z,6.93
2023-01-13T03:35:33.077Z,8.48
2023-01-13T03:37:07.126Z,6.50
2023-01-13T03:38:43.215Z,9.55
2023-01-13T03:40:18.758Z,7.28
2023-01-13T03:41:54.552Z,7.30
2023-01-13T03:43:50.214Z,10.82
2023-01-13T03:45:21.902Z,10.98
2023-01-13T03:47:01.959Z,10.52
2023-01-13T03:50:13.218Z,9.07
2023-01-13T03:51:50.016Z,9.10
2023-01-13T03:53:27.336Z,8.55
2023-01-13T03:55:05.154Z,11.63
2023-01-13T03:56:41.568Z,11.15
2023-01-13T03:58:17.735Z,8.50
2023-01-13T03:59:53.313Z,8.50
2023-01-13T04:01:32.121Z,11.82
2023-01-13T04:03:09.893Z,8.52
2023-01-13T04:04:47.287Z,10.85
2023-01-13T04:06:25.797Z,10.65
2023-01-13T04:08:07.659Z,10.90
2023-01-13T04:09:48.300Z,10.10
2023-01-13T04:11:27.057Z,11.13
2023-01-13T04:13:02.357Z,12.32
2023-01-13T04:14:35.582Z,11.55
2023-01-13T04:16:08.845Z,11.10
2023-01-13T04:17:40.561Z,12.95
2023-01-13T04:19:12.214Z,11.55
2023-01-13T04:20:45.971Z,12.88
2023-01-13T04:22:19.014Z,10.63
2023-01-13T04:23:51.808Z,6.93
2023-01-13T04:25:23.591Z,12.07
2023-01-13T04:26:56.432Z,11.73
2023-01-13T04:28:28.096Z,12.30
2023-01-13T04:29:59.861Z,10.88
2023-01-13T04:31:31.478Z,13.27
2023-01-13T04:33:04.387Z,14.05
2023-01-13T04:34:36.021Z,10.27
2023-01-13T04:36:08.166Z,7.03
2023-01-13T04:37:41.217Z,9.93
2023-01-13T04:39:12.877Z,10.57
2023-01-13T04:40:44.782Z,11.95
2023-01-13T04:42:16.380Z,13.20
2023-01-13T04:43:48.153Z,9.73
2023-01-13T04:45:19.833Z,12.65
2023-01-13T04:46:51.597Z,12.88
2023-01-13T04:48:23.344Z,12.88
2023-01-13T04:49:55.025Z,11.80
2023-01-13T04:51:27.399Z,12.15
2023-01-13T04:53:01.594Z,15.68
2023-01-13T04:54:33.351Z,12.63
2023-01-13T04:56:05.505Z,11.10
2023-01-13T04:57:37.689Z,12.48
2023-01-13T04:59:10.294Z,11.50
2023-01-13T05:00:42.289Z,12.38
2023-01-13T05:02:19.760Z,15.43
2023-01-13T05:03:51.489Z,9.20
2023-01-13T05:05:23.191Z,10.80
2023-01-13T05:06:54.869Z,11.00
2023-01-13T05:08:27.919Z,12.75
2023-01-13T05:09:59.634Z,11.10
2023-01-13T05:11:49.681Z,10.75
2023-01-13T05:15:32.597Z,10.75
2023-01-13T05:17:04.327Z,12.70
2023-01-13T05:18:35.963Z,13.63
2023-01-13T05:20:08.901Z,11.20
2023-01-13T05:21:59.282Z,11.30
2023-01-13T05:23:50.980Z,8.65
2023-01-13T05:25:23.093Z,16.52
2023-01-13T05:26:54.714Z,12.55
2023-01-13T05:28:26.511Z,13.30
2023-01-13T05:29:58.331Z,12.57
2023-01-13T05:31:30.019Z,16.73
2023-01-13T05:33:01.653Z,15.57
2023-01-13T05:34:33.590Z,17.85
2023-01-13T05:36:05.818Z,16.17
2023-01-13T05:37:37.727Z,16.92
2023-01-13T05:39:10.744Z,15.57
2023-01-13T05:41:00.855Z,12.50
2023-01-13T05:45:57.776Z,10.60
2023-01-13T05:47:29.450Z,10.85
2023-01-13T05:49:01.678Z,14.55
2023-01-13T05:50:33.359Z,14.32
2023-01-13T05:52:09.926Z,11.75
2023-01-13T05:53:41.658Z,14.48
2023-01-13T05:55:14.833Z,12.40
2023-01-13T05:56:46.549Z,15.52
2023-01-13T05:58:20.205Z,9.32
2023-01-13T05:59:51.890Z,11.90
2023-01-13T06:01:23.650Z,11.70
2023-01-13T06:02:55.357Z,10.88
2023-01-13T06:04:27.055Z,13.93
2023-01-13T06:06:01.549Z,12.07
2023-01-13T06:07:33.400Z,7.57
2023-01-13T06:09:05.318Z,10.20
2023-01-13T06:10:38.316Z,14.30
2023-01-13T06:12:11.194Z,11.82
2023-01-13T06:13:42.856Z,10.50
2023-01-13T06:15:14.529Z,7.78
2023-01-13T06:16:46.277Z,8.80
2023-01-13T06:18:18.030Z,11.82
2023-01-13T06:19:50.906Z,10.60
2023-01-13T06:21:22.579Z,9.18
2023-01-13T06:22:54.676Z,14.13
2023-01-13T06:24:26.456Z,13.35
2023-01-13T06:26:05.460Z,14.40
2023-01-13T06:27:37.722Z,11.35
2023-01-13T06:29:10.103Z,13.07
2023-01-13T06:30:45.729Z,15.35
2023-01-13T06:32:19.610Z,13.80
2023-01-13T06:33:57.900Z,9.82
2023-01-13T06:35:34.651Z,9.52
2023-01-13T06:37:06.637Z,10.77
2023-01-13T06:38:42.971Z,10.45
2023-01-13T06:40:15.510Z,9.43
2023-01-13T06:42:10.747Z,10.50
2023-01-13T06:43:42.645Z,12.63
2023-01-13T06:45:14.514Z,12.75
2023-01-13T06:46:46.430Z,13.93
2023-01-13T06:48:20.303Z,9.68
2023-01-13T06:49:52.373Z,13.25
2023-01-13T06:51:24.265Z,8.80
2023-01-13T06:52:56.172Z,12.85
2023-01-13T06:54:28.059Z,10.27
2023-01-13T06:55:59.772Z,15.43
2023-01-13T06:57:32.773Z,11.18
2023-01-13T06:59:04.490Z,16.30
2023-01-13T07:00:37.240Z,11.23
2023-01-13T07:02:09.030Z,10.90
2023-01-13T07:03:41.055Z,9.45
2023-01-13T07:05:13.286Z,10.57
2023-01-13T07:06:45.205Z,10.55
2023-01-13T07:08:16.875Z,10.45
2023-01-13T07:09:48.539Z,10.35
2023-01-13T07:11:20.245Z,10.60
2023-01-13T07:13:11.915Z,12.10
2023-01-13T07:15:02.228Z,12.07
2023-01-13T07:16:33.998Z,11.13
2023-01-13T07:18:05.920Z,10.95
2023-01-13T07:19:37.798Z,12.00
2023-01-13T07:21:13.130Z,14.70
2023-01-13T07:22:45.236Z,8.07
2023-01-13T07:24:16.955Z,9.07
2023-01-13T07:25:49.016Z,7.90
2023-01-13T07:27:20.657Z,11.73
2023-01-13T07:28:53.732Z,8.90
2023-01-13T07:30:25.648Z,10.27
2023-01-13T07:31:57.328Z,9.15
2023-01-13T07:33:32.845Z,8.85
2023-01-13T07:35:05.502Z,8.77
2023-01-13T07:36:37.511Z,7.28
2023-01-13T07:38:09.208Z,8.48
2023-01-13T07:39:40.960Z,12.57
2023-01-13T07:41:31.939Z,10.77
2023-01-13T07:43:22.479Z,7.95
2023-01-13T07:44:56.129Z,12.60
2023-01-13T07:46:27.815Z,12.65
2023-01-13T07:47:59.478Z,13.25
2023-01-13T07:49:31.374Z,12.38
2023-01-13T07:51:04.377Z,9.35
2023-01-13T07:52:36.106Z,8.43
2023-01-13T07:54:08.010Z,12.38
2023-01-13T07:55:42.262Z,10.77
2023-01-13T07:57:14.019Z,7.75
2023-01-13T07:58:50.304Z,8.60
2023-01-13T08:00:24.083Z,7.78
2023-01-13T08:01:55.996Z,6.78
2023-01-13T08:03:27.844Z,7.55
2023-01-13T08:04:59.514Z,11.18
2023-01-13T08:06:31.231Z,9.48
2023-01-13T08:08:03.009Z,7.68
2023-01-13T08:09:34.883Z,7.00
2023-01-13T08:11:08.467Z,11.43
2023-01-13T08:12:58.665Z,8.63
2023-01-13T08:14:30.472Z,7.97
2023-01-13T08:16:06.277Z,7.72
2023-01-13T08:17:38.220Z,8.98
2023-01-13T08:19:09.910Z,12.25
2023-01-13T08:20:41.700Z,9.48
2023-01-13T08:22:13.519Z,7.78
2023-01-13T08:23:45.526Z,9.02
2023-01-13T08:25:17.597Z,8.02
2023-01-13T08:26:49.314Z,12.73
2023-01-13T08:28:23.856Z,10.95
2023-01-13T08:29:55.734Z,14.85
2023-01-13T08:31:28.816Z,9.57
2023-01-13T08:33:00.789Z,11.60
2023-01-13T08:34:32.533Z,12.25
2023-01-13T08:36:06.165Z,10.57
2023-01-13T08:37:38.167Z,9.95
2023-01-13T08:39:09.806Z,12.10
2023-01-13T08:40:41.587Z,10.40
2023-01-13T08:42:13.220Z,12.88
2023-01-13T08:43:44.944Z,13.77
2023-01-13T08:45:17.012Z,13.70
2023-01-13T08:46:50.059Z,15.52
2023-01-13T08:48:21.758Z,13.35
2023-01-13T08:49:53.520Z,13.82
2023-01-13T08:51:25.261Z,11.65
2023-01-13T08:52:57.179Z,15.73
2023-01-13T08:54:28.884Z,13.45
2023-01-13T08:56:00.539Z,9.18
2023-01-13T08:57:32.570Z,14.57
2023-01-13T08:59:04.582Z,19.65
2023-01-13T09:00:36.389Z,15.30
2023-01-13T09:02:13.178Z,11.85
2023-01-13T09:03:44.921Z,12.85
2023-01-13T09:05:17.825Z,12.32
2023-01-13T09:06:50.437Z,12.20
2023-01-13T09:08:22.082Z,16.00
2023-01-13T09:09:56.128Z,16.80
2023-01-13T09:11:50.208Z,11.73
2023-01-13T09:13:21.865Z,13.98
2023-01-13T09:14:53.526Z,16.17
2023-01-13T09:16:25.177Z,18.55
2023-01-13T09:17:58.228Z,19.08
2023-01-13T09:19:30.426Z,13.52
2023-01-13T09:21:02.123Z,15.20
2023-01-13T09:22:36.319Z,16.65
2023-01-13T09:24:08.580Z,16.35
2023-01-13T09:25:40.199Z,17.95
2023-01-13T09:27:12.904Z,11.88
2023-01-13T09:28:44.655Z,21.17
2023-01-13T09:30:16.724Z,17.30
2023-01-13T09:31:48.421Z,14.52
2023-01-13T09:33:39.976Z,17.30
2023-01-13T09:35:11.632Z,17.40
2023-01-13T09:36:43.327Z,14.25
2023-01-13T09:38:14.992Z,21.48
2023-01-13T09:39:46.773Z,17.83
2023-01-13T09:41:55.715Z,17.25
2023-01-13T09:43:54.404Z,14.23
2023-01-13T09:45:32.064Z,22.13
2023-01-13T09:47:07.163Z,14.55
2023-01-13T09:48:52.087Z,18.13
2023-01-13T09:50:45.814Z,17.15
2023-01-13T09:52:21.006Z,13.38
2023-01-13T09:54:00.857Z,11.38
2023-01-13T09:55:36.474Z,18.50
2023-01-13T09:57:10.649Z,14.32
2023-01-13T09:58:42.758Z,16.40
2023-01-13T10:00:21.067Z,18.30
2023-01-13T10:01:59.445Z,15.05
2023-01-13T10:03:32.656Z,18.27
2023-01-13T10:05:16.139Z,20.48
2023-01-13T10:06:51.823Z,16.20
2023-01-13T10:08:26.877Z,22.08
2023-01-13T10:10:01.621Z,19.95
2023-01-13T10:11:57.985Z,17.65
2023-01-13T10:13:31.261Z,16.65
2023-01-13T10:15:03.496Z,17.48
2023-01-13T10:16:42.278Z,18.70
2023-01-13T10:18:18.488Z,20.25
2023-01-13T10:19:56.092Z,18.48
2023-01-13T10:21:48.994Z,14.43
2023-01-13T10:23:47.173Z,18.65
2023-01-13T10:25:24.828Z,18.38
2023-01-13T10:27:03.408Z,13.05
2023-01-13T10:28:35.016Z,15.80
2023-01-13T10:30:19.624Z,16.48
2023-01-13T10:31:52.223Z,12.38
2023-01-13T10:33:28.353Z,15.48
2023-01-13T10:35:01.789Z,13.80
2023-01-13T10:36:34.835Z,12.70
2023-01-13T10:38:16.159Z,10.85
2023-01-13T10:39:49.108Z,16.40
2023-01-13T10:41:25.181Z,17.23
2023-01-13T10:43:06.430Z,18.33
2023-01-13T10:44:51.881Z,15.15
2023-01-13T10:46:23.668Z,22.70
2023-01-13T10:48:07.361Z,13.98
2023-01-13T10:49:39.119Z,16.85
2023-01-13T10:51:18.406Z,13.60
2023-01-13T10:52:59.664Z,13.68
2023-01-13T10:54:31.404Z,18.20
2023-01-13T10:56:04.720Z,16.33
2023-01-13T10:57:36.982Z,20.40
2023-01-13T10:59:18.375Z,18.00
2023-01-13T11:00:59.929Z,18.02
2023-01-13T11:02:33.538Z,14.30
2023-01-13T11:04:26.700Z,15.15
2023-01-13T11:06:00.314Z,22.60
2023-01-13T11:07:34.891Z,15.13
2023-01-13T11:09:19.188Z,14.90
2023-01-13T11:10:53.738Z,19.73
2023-01-13T11:12:31.217Z,16.30
2023-01-13T11:14:26.856Z,16.02
2023-01-13T11:16:04.597Z,20.08
2023-01-13T11:17:45.339Z,17.42
2023-01-13T11:19:20.890Z,14.82
2023-01-13T11:20:54.841Z,15.70
2023-01-13T11:22:32.045Z,20.58
2023-01-13T11:24:15.547Z,17.25
2023-01-13T11:25:52.921Z,15.65
2023-01-13T11:27:38.226Z,17.45
2023-01-13T11:29:15.084Z,15.90
2023-01-13T11:30:54.287Z,13.95
2023-01-13T11:32:29.136Z,16.67
2023-01-13T11:34:08.182Z,14.07
2023-01-13T11:35:44.140Z,16.40
2023-01-13T11:37:20.373Z,19.40
2023-01-13T11:38:55.980Z,12.98
2023-01-13T11:40:34.320Z,13.65
2023-01-13T11:42:24.466Z,15.60
2023-01-13T11:44:06.296Z,15.65
2023-01-13T11:45:42.790Z,21.02
2023-01-13T11:47:17.005Z,18.33
2023-01-13T11:48:48.762Z,21.60
2023-01-13T11:50:31.632Z,15.40
2023-01-13T11:52:09.522Z,21.70
2023-01-13T11:53:57.714Z,17.48
2023-01-13T11:55:37.763Z,13.95
2023-01-13T11:59:16.069Z,17.45
2023-01-13T12:01:07.648Z,18.92
2023-01-13T12:02:52.905Z,18.23
2023-01-13T12:04:28.949Z,17.90
2023-01-13T12:06:15.641Z,20.70
2023-01-13T12:07:57.341Z,15.55
2023-01-13T12:09:44.581Z,12.65
2023-01-13T12:11:26.501Z,15.30
2023-01-13T12:13:10.881Z,18.35
2023-01-13T12:15:06.141Z,15.43
2023-01-13T12:16:46.807Z,15.00
2023-01-13T12:18:38.218Z,16.75
2023-01-13T12:20:20.669Z,17.88
2023-01-13T12:22:02.928Z,15.88
2023-01-13T12:23:38.755Z,15.30
2023-01-13T12:25:21.066Z,15.75
2023-01-13T12:26:57.262Z,15.90
2023-01-13T12:28:41.226Z,18.50
2023-01-13T12:30:22.448Z,20.10
2023-01-13T12:31:55.204Z,17.40
2023-01-13T12:33:43.879Z,17.13
2023-01-13T12:35:29.146Z,18.65
2023-01-13T12:37:09.994Z,26.02
2023-01-13T12:38:47.985Z,16.50
2023-01-13T12:40:29.093Z,18.55
2023-01-13T12:42:27.634Z,14.10
2023-01-13T12:44:18.413Z,16.27
2023-01-13T12:45:50.185Z,17.75
2023-01-13T12:47:33.762Z,18.17
2023-01-13T12:49:06.727Z,15.95
2023-01-13T12:50:42.873Z,11.48
2023-01-13T12:52:18.198Z,13.43
2023-01-13T12:53:50.340Z,14.07
2023-01-13T12:55:23.358Z,14.05
2023-01-13T12:56:55.269Z,9.98
2023-01-13T12:58:28.883Z,12.90
2023-01-13T13:00:18.640Z,16.40
2023-01-13T13:02:00.697Z,11.90
2023-01-13T13:03:34.878Z,11.38
2023-01-13T13:05:41.317Z,15.38
2023-01-13T13:07:16.988Z,11.40
2023-01-13T13:09:03.662Z,15.00
2023-01-13T13:10:39.188Z,9.82
2023-01-13T13:13:04.578Z,11.85
2023-01-13T13:15:18.925Z,13.48
2023-01-13T13:16:51.370Z,17.35
2023-01-13T13:18:28.213Z,13.48
2023-01-13T13:20:01.362Z,16.27
2023-01-13T13:22:06.289Z,13.52
2023-01-13T13:24:04.986Z,16.17
2023-01-13T13:25:36.709Z,15.07
2023-01-13T13:27:17.267Z,17.88
2023-01-13T13:29:05.483Z,16.30
2023-01-13T13:30:43.512Z,14.88
2023-01-13T13:32:30.756Z,13.90
2023-01-13T13:34:13.712Z,13.07
2023-01-13T13:36:02.599Z,14.38
2023-01-13T13:38:14.252Z,16.38
2023-01-13T13:40:04.679Z,15.18
2023-01-13T13:41:55.793Z,12.15
2023-01-13T13:44:03.377Z,15.73
2023-01-13T13:45:53.494Z,17.98
2023-01-13T13:49:05.895Z,14.40
2023-01-13T13:50:46.852Z,15.15
2023-01-13T13:52:21.568Z,12.57
2023-01-13T13:53:54.708Z,14.75
2023-01-13T13:55:29.062Z,15.00
2023-01-13T13:57:01.213Z,11.82
2023-01-13T13:58:36.984Z,15.50
2023-01-13T14:00:20.924Z,10.63
2023-01-13T14:02:01.114Z,13.05
2023-01-13T14:03:39.021Z,13.60
2023-01-13T14:05:18.564Z,14.05
2023-01-13T14:06:52.865Z,12.73
2023-01-13T14:08:26.281Z,14.20
2023-01-13T14:09:59.579Z,11.65
2023-01-13T14:11:33.296Z,14.75
2023-01-13T14:13:14.890Z,15.05
2023-01-13T14:14:47.722Z,15.45
2023-01-13T14:16:19.807Z,12.90
2023-01-13T14:17:51.600Z,13.80
2023-01-13T14:19:30.825Z,14.77
2023-01-13T14:21:16.652Z,13.88
2023-01-13T14:22:49.158Z,12.05
2023-01-13T14:24:22.489Z,13.55
2023-01-13T14:25:55.578Z,13.48
2023-01-13T14:27:28.854Z,15.63
2023-01-13T14:29:03.091Z,15.40
2023-01-13T14:30:36.064Z,14.95
2023-01-13T14:32:08.356Z,16.13
2023-01-13T14:33:43.738Z,18.17
2023-01-13T14:35:17.840Z,17.45
2023-01-13T14:36:51.204Z,16.73
2023-01-13T14:38:22.879Z,15.60
2023-01-13T14:39:55.369Z,20.70
2023-01-13T14:41:30.078Z,13.30
2023-01-13T14:43:03.430Z,14.88
2023-01-13T14:44:36.543Z,13.75
2023-01-13T14:46:08.474Z,16.77
2023-01-13T14:47:40.191Z,19.08
2023-01-13T14:49:23.917Z,21.88
2023-01-13T14:50:57.420Z,18.52
2023-01-13T14:52:31.338Z,19.05
2023-01-13T14:54:03.075Z,20.10
2023-01-13T14:55:41.969Z,17.13
2023-01-13T14:57:27.873Z,17.23
2023-01-13T14:59:02.313Z,16.35
2023-01-13T15:00:35.710Z,16.70
2023-01-13T15:02:46.638Z,13.48
2023-01-13T15:04:25.822Z,14.70
2023-01-13T15:05:59.155Z,15.07
2023-01-13T15:07:32.359Z,17.80
2023-01-13T15:09:11.764Z,16.58
2023-01-13T15:10:48.010Z,15.15
2023-01-13T15:12:29.329Z,15.27
2023-01-13T15:14:02.459Z,14.65
2023-01-13T15:15:36.406Z,15.57
2023-01-13T15:17:15.526Z,13.05
2023-01-13T15:18:47.971Z,12.57
2023-01-13T15:20:21.680Z,15.40
2023-01-13T15:21:54.795Z,17.38
2023-01-13T15:23:26.666Z,12.38
2023-01-13T15:24:58.540Z,13.20
2023-01-13T15:26:32.202Z,14.73
2023-01-13T15:28:05.844Z,15.65
2023-01-13T15:29:37.578Z,12.13
2023-01-13T15:31:09.536Z,20.55
2023-01-13T15:32:41.419Z,14.13
2023-01-13T15:34:13.351Z,16.40
2023-01-13T15:35:48.633Z,18.45
2023-01-13T15:37:21.740Z,16.60
2023-01-13T15:38:53.928Z,12.05
2023-01-13T15:40:30.696Z,17.52
2023-01-13T15:42:20.992Z,14.52
2023-01-13T15:44:12.956Z,17.52
2023-01-13T15:46:04.987Z,18.33
2023-01-13T15:47:36.815Z,14.43
2023-01-13T15:49:20.801Z,18.45
2023-01-13T15:50:52.499Z,15.38
2023-01-13T15:52:27.443Z,21.48
2023-01-13T15:54:02.431Z,12.45
2023-01-13T15:55:37.260Z,15.93
2023-01-13T15:57:11.364Z,14.35
2023-01-13T15:58:43.035Z,16.60
2023-01-13T16:00:17.074Z,19.38
2023-01-13T16:01:48.815Z,13.30
2023-01-13T16:03:20.783Z,13.90
2023-01-13T16:04:54.059Z,18.45
2023-01-13T16:06:32.456Z,17.40
2023-01-13T16:08:05.926Z,16.10
2023-01-13T16:09:37.653Z,15.30
2023-01-13T16:11:09.737Z,15.57
2023-01-13T16:12:41.586Z,13.55
2023-01-13T16:14:13.370Z,17.92
2023-01-13T16:15:48.190Z,19.13
2023-01-13T16:17:22.803Z,18.00
2023-01-13T16:18:55.487Z,14.82
2023-01-13T16:20:27.694Z,14.77
2023-01-13T16:21:59.807Z,25.08
2023-01-13T16:23:32.871Z,16.42
2023-01-13T16:25:05.248Z,13.50
2023-01-13T16:26:38.858Z,14.38
2023-01-13T16:28:19.128Z,14.13
2023-01-13T16:29:52.158Z,12.70
2023-01-13T16:31:26.718Z,20.15
2023-01-13T16:32:58.646Z,12.50
2023-01-13T16:34:30.321Z,10.10
2023-01-13T16:36:10.586Z,13.38
2023-01-13T16:37:47.073Z,14.90
2023-01-13T16:40:56.939Z,13.68
2023-01-13T16:42:28.781Z,16.55
2023-01-13T16:44:05.847Z,15.57
2023-01-13T16:45:37.622Z,10.75
2023-01-13T16:47:14.104Z,15.18
2023-01-13T16:48:46.142Z,15.57
2023-01-13T16:50:27.134Z,13.88
2023-01-13T16:51:58.811Z,12.80
2023-01-13T16:53:30.497Z,13.68
2023-01-13T16:55:03.777Z,14.45
2023-01-13T16:56:36.679Z,17.77
2023-01-13T16:58:16.757Z,13.23
2023-01-13T17:01:22.991Z,14.93
2023-01-13T17:02:54.781Z,15.25
2023-01-13T17:04:26.508Z,16.30
2023-01-13T17:06:03.525Z,15.02
2023-01-13T17:07:35.659Z,17.13
2023-01-13T17:09:11.612Z,20.48
2023-01-13T17:10:44.718Z,17.67
2023-01-13T17:12:16.501Z,15.23
2023-01-13T17:13:48.336Z,14.38
2023-01-13T17:15:20.219Z,19.15
2023-01-13T17:16:53.925Z,16.00
2023-01-13T17:18:26.597Z,19.23
2023-01-13T17:19:58.303Z,17.23
2023-01-13T17:21:30.026Z,15.70
2023-01-13T17:23:01.802Z,14.00
2023-01-13T17:24:35.084Z,15.40
2023-01-13T17:26:15.167Z,17.67
2023-01-13T17:29:21.830Z,18.67
2023-01-13T17:30:54.019Z,15.73
2023-01-13T17:32:25.822Z,17.80
2023-01-13T17:33:58.027Z,16.45
2023-01-13T17:35:29.848Z,17.13
2023-01-13T17:37:01.536Z,21.73
2023-01-13T17:38:33.301Z,14.55
2023-01-13T17:40:06.315Z,20.70
2023-01-13T17:41:39.314Z,15.60
2023-01-13T17:43:11.094Z,14.57
2023-01-13T17:44:42.799Z,14.20
2023-01-13T17:46:18.473Z,16.10
2023-01-13T17:47:50.686Z,16.15
2023-01-13T17:49:22.599Z,16.05
2023-01-13T17:50:54.460Z,16.13
2023-01-13T17:52:26.336Z,14.32
2023-01-13T17:53:58.131Z,15.82
2023-01-13T17:55:30.144Z,18.17
2023-01-13T17:57:03.633Z,12.15
2023-01-13T17:58:35.458Z,16.10
2023-01-13T18:00:08.592Z,16.80
2023-01-13T18:01:46.175Z,15.30
2023-01-13T18:03:18.828Z,17.33
2023-01-13T18:04:50.539Z,13.35
2023-01-13T18:06:24.995Z,14.43
2023-01-13T18:07:56.734Z,14.18
2023-01-13T18:09:28.401Z,10.60
2023-01-13T18:11:00.753Z,13.57
2023-01-13T18:12:34.829Z,11.60
2023-01-13T18:14:07.034Z,16.08
2023-01-13T18:15:38.728Z,16.30
2023-01-13T18:17:10.990Z,17.10
2023-01-13T18:18:45.618Z,11.98
2023-01-13T18:20:37.319Z,14.38
2023-01-13T18:22:31.521Z,14.73
2023-01-13T18:24:23.001Z,14.60
2023-01-13T18:26:13.633Z,11.52
2023-01-13T18:27:46.883Z,15.30
2023-01-13T18:29:18.651Z,19.08
2023-01-13T18:30:51.834Z,15.77
2023-01-13T18:32:32.684Z,16.67
2023-01-13T18:34:05.084Z,15.00
2023-01-13T18:35:39.191Z,15.43
2023-01-13T18:37:12.868Z,18.35
2023-01-13T18:38:44.588Z,18.13
2023-01-13T18:40:16.861Z,16.35
2023-01-13T18:42:07.586Z,15.30
2023-01-13T18:43:40.916Z,16.98
2023-01-13T18:45:12.609Z,13.85
2023-01-13T18:46:44.273Z,15.93
2023-01-13T18:48:16.671Z,12.68
2023-01-13T18:49:48.984Z,16.38
2023-01-13T18:51:20.756Z,14.48
2023-01-13T18:52:52.960Z,18.30
2023-01-13T18:54:24.737Z,18.77
2023-01-13T18:55:56.546Z,14.27
2023-01-13T18:57:28.291Z,15.65
2023-01-13T18:59:02.504Z,15.02
2023-01-13T19:00:37.169Z,17.40
2023-01-13T19:02:14.714Z,15.25
2023-01-13T19:03:46.487Z,18.25
2023-01-13T19:05:18.519Z,18.85
2023-01-13T19:06:55.944Z,14.80
2023-01-13T19:08:27.721Z,13.57
2023-01-13T19:09:59.610Z,15.88
2023-01-13T19:11:31.366Z,14.45
2023-01-13T19:13:03.225Z,17.25
2023-01-13T19:14:42.001Z,16.88
2023-01-13T19:16:13.813Z,15.50
2023-01-13T19:17:56.389Z,19.10
2023-01-13T19:19:28.271Z,15.57
2023-01-13T19:21:03.953Z,19.95
2023-01-13T19:22:35.825Z,16.65
2023-01-13T19:24:08.431Z,14.77
2023-01-13T19:25:40.130Z,12.70
2023-01-13T19:27:14.486Z,18.20
2023-01-13T19:28:46.282Z,15.05
2023-01-13T19:30:20.614Z,16.27
2023-01-13T19:31:52.367Z,13.02
2023-01-13T19:33:24.267Z,14.77
2023-01-13T19:34:59.251Z,14.60
2023-01-13T19:36:31.045Z,14.10
2023-01-13T19:38:03.129Z,16.45
2023-01-13T19:39:35.055Z,16.63
2023-01-13T19:41:27.770Z,19.50
2023-01-13T19:43:18.286Z,17.65
2023-01-13T19:45:09.621Z,17.55
2023-01-13T19:46:42.753Z,18.90
2023-01-13T19:48:16.223Z,15.23
2023-01-13T19:49:48.046Z,21.38
2023-01-13T19:51:19.869Z,19.38
2023-01-13T19:52:51.804Z,13.10
2023-01-13T19:54:23.494Z,19.05
2023-01-13T19:55:55.707Z,21.38
2023-01-13T19:57:27.796Z,19.67
2023-01-13T19:58:59.499Z,18.40
2023-01-13T20:00:31.322Z,21.30
2023-01-13T20:02:04.532Z,18.23
2023-01-13T20:03:37.707Z,19.05
2023-01-13T20:05:12.385Z,21.08
2023-01-13T20:06:44.986Z,19.38
2023-01-13T20:08:17.061Z,15.88
2023-01-13T20:09:48.764Z,15.43
2023-01-13T20:11:25.069Z,17.70
2023-01-13T20:12:56.776Z,12.85
2023-01-13T20:14:28.428Z,19.15
2023-01-13T20:16:00.183Z,16.90
2023-01-13T20:17:33.272Z,17.00
2023-01-13T20:19:04.971Z,16.75
2023-01-13T20:20:37.465Z,16.52
2023-01-13T20:22:09.630Z,18.27
2023-01-13T20:23:41.403Z,17.05
2023-01-13T20:25:16.688Z,19.33
2023-01-13T20:26:48.783Z,18.23
2023-01-13T20:28:20.658Z,20.52
2023-01-13T20:29:52.325Z,20.15
2023-01-13T20:31:24.119Z,20.15
2023-01-13T20:32:57.177Z,15.07
2023-01-13T20:34:29.058Z,19.40
2023-01-13T20:36:00.809Z,23.45
2023-01-13T20:37:32.951Z,22.73
2023-01-13T20:39:07.229Z,18.33
2023-01-13T20:40:38.976Z,17.58
2023-01-13T20:42:29.637Z,15.13
2023-01-13T20:44:01.429Z,22.52
2023-01-13T20:45:33.912Z,19.75
2023-01-13T20:47:05.923Z,15.10
2023-01-13T20:48:38.969Z,21.45
2023-01-13T20:50:11.434Z,23.70
2023-01-13T20:51:43.166Z,24.10
2023-01-13T20:53:14.826Z,18.15
2023-01-13T20:54:46.536Z,20.55
2023-01-13T20:56:18.437Z,22.63
2023-01-13T20:57:50.491Z,23.40
2023-01-13T20:59:22.848Z,20.40
2023-01-13T21:00:58.292Z,20.67